sensor_id;sensor_type;location;lat;lon;timestamp;P1;durP1;ratioP1;P2;durP2;ratioP2
21507;SDS011;10915;54.352;9.074;2024-03-22T00:00:15;33.10;;;29.60;;
21507;SDS011;10915;54.352;9.074;2024-03-22T00:02:41;33.23;;;28.90;;
21507;SDS011;10915;54.352;9.074;2024-03-22T00:05:06;32.30;;;28.80;;
21507;SDS011;10915;54.352;9.074;2024-03-22T00:07:32;33.50;;;28.40;;
21507;SDS011;10915;54.352;9.074;2024-03-22T00:09:57;32.00;;;28.60;;
21507;SDS011;10915;54.352;9.074;2024-03-22T00:12:23;34.53;;;30.80;;
21507;SDS011;10915;54.352;9.074;2024-03-22T00:14:49;34.83;;;29.07;;
21507;SDS011;10915;54.352;9.074;2024-03-22T00:17:16;32.70;;;29.23;;
21507;SDS011;10915;54.352;9.074;2024-03-22T00:19:41;34.80;;;31.10;;
21507;SDS011;10915;54.352;9.074;2024-03-22T00:22:07;34.77;;;30.87;;
21507;SDS011;10915;54.352;9.074;2024-03-22T00:24:33;34.37;;;30.47;;
21507;SDS011;10915;54.352;9.074;2024-03-22T00:26:58;33.80;;;30.13;;
21507;SDS011;10915;54.352;9.074;2024-03-22T00:29:24;35.93;;;30.27;;
21507;SDS011;10915;54.352;9.074;2024-03-22T00:31:51;36.23;;;31.57;;
21507;SDS011;10915;54.352;9.074;2024-03-22T00:34:16;37.17;;;30.97;;
21507;SDS011;10915;54.352;9.074;2024-03-22T00:36:42;33.90;;;30.17;;
21507;SDS011;10915;54.352;9.074;2024-03-22T00:39:07;39.10;;;33.07;;
21507;SDS011;10915;54.352;9.074;2024-03-22T00:41:33;37.33;;;32.23;;
21507;SDS011;10915;54.352;9.074;2024-03-22T00:43:59;36.57;;;32.13;;
21507;SDS011;10915;54.352;9.074;2024-03-22T00:46:24;39.90;;;33.30;;
21507;SDS011;10915;54.352;9.074;2024-03-22T00:48:50;35.80;;;31.90;;
21507;SDS011;10915;54.352;9.074;2024-03-22T00:51:15;38.37;;;32.17;;
21507;SDS011;10915;54.352;9.074;2024-03-22T00:53:41;37.90;;;33.10;;
21507;SDS011;10915;54.352;9.074;2024-03-22T00:56:07;39.67;;;32.40;;
21507;SDS011;10915;54.352;9.074;2024-03-22T00:58:32;36.47;;;32.47;;
21507;SDS011;10915;54.352;9.074;2024-03-22T01:00:58;36.83;;;32.27;;
21507;SDS011;10915;54.352;9.074;2024-03-22T01:03:24;38.83;;;33.13;;
21507;SDS011;10915;54.352;9.074;2024-03-22T01:05:49;37.27;;;33.27;;
21507;SDS011;10915;54.352;9.074;2024-03-22T01:08:15;40.13;;;33.67;;
21507;SDS011;10915;54.352;9.074;2024-03-22T01:10:40;36.77;;;32.77;;
21507;SDS011;10915;54.352;9.074;2024-03-22T01:13:06;41.07;;;34.70;;
21507;SDS011;10915;54.352;9.074;2024-03-22T01:15:32;40.33;;;35.53;;
21507;SDS011;10915;54.352;9.074;2024-03-22T01:17:58;37.83;;;33.47;;
21507;SDS011;10915;54.352;9.074;2024-03-22T01:20:23;39.17;;;34.27;;
21507;SDS011;10915;54.352;9.074;2024-03-22T01:22:49;39.23;;;35.03;;
21507;SDS011;10915;54.352;9.074;2024-03-22T01:25:15;41.37;;;35.63;;
21507;SDS011;10915;54.352;9.074;2024-03-22T01:27:40;40.83;;;35.40;;
21507;SDS011;10915;54.352;9.074;2024-03-22T01:30:06;44.37;;;36.70;;
21507;SDS011;10915;54.352;9.074;2024-03-22T01:32:32;40.07;;;35.07;;
21507;SDS011;10915;54.352;9.074;2024-03-22T01:34:57;41.63;;;35.53;;
21507;SDS011;10915;54.352;9.074;2024-03-22T01:37:23;41.57;;;36.90;;
21507;SDS011;10915;54.352;9.074;2024-03-22T01:39:49;42.73;;;37.13;;
21507;SDS011;10915;54.352;9.074;2024-03-22T01:42:14;45.00;;;37.83;;
21507;SDS011;10915;54.352;9.074;2024-03-22T01:44:40;43.97;;;38.90;;
21507;SDS011;10915;54.352;9.074;2024-03-22T01:47:06;47.90;;;40.33;;
21507;SDS011;10915;54.352;9.074;2024-03-22T01:49:32;43.57;;;38.57;;
21507;SDS011;10915;54.352;9.074;2024-03-22T01:51:58;44.40;;;39.27;;
21507;SDS011;10915;54.352;9.074;2024-03-22T01:54:23;51.27;;;40.30;;
21507;SDS011;10915;54.352;9.074;2024-03-22T01:56:49;46.90;;;40.80;;
21507;SDS011;10915;54.352;9.074;2024-03-22T01:59:15;46.60;;;40.07;;
21507;SDS011;10915;54.352;9.074;2024-03-22T02:01:41;47.07;;;40.37;;
21507;SDS011;10915;54.352;9.074;2024-03-22T02:04:07;51.60;;;40.97;;
21507;SDS011;10915;54.352;9.074;2024-03-22T02:06:33;48.10;;;40.03;;
21507;SDS011;10915;54.352;9.074;2024-03-22T02:08:59;50.10;;;41.70;;
21507;SDS011;10915;54.352;9.074;2024-03-22T02:11:25;48.07;;;41.17;;
21507;SDS011;10915;54.352;9.074;2024-03-22T02:13:51;52.60;;;42.27;;
21507;SDS011;10915;54.352;9.074;2024-03-22T02:16:17;52.70;;;42.80;;
21507;SDS011;10915;54.352;9.074;2024-03-22T02:18:42;49.37;;;41.70;;
21507;SDS011;10915;54.352;9.074;2024-03-22T02:21:09;52.07;;;42.60;;
21507;SDS011;10915;54.352;9.074;2024-03-22T02:23:36;49.27;;;42.20;;
21507;SDS011;10915;54.352;9.074;2024-03-22T02:26:04;53.00;;;42.80;;
21507;SDS011;10915;54.352;9.074;2024-03-22T02:28:30;51.50;;;43.40;;
21507;SDS011;10915;54.352;9.074;2024-03-22T02:31:00;52.33;;;42.57;;
21507;SDS011;10915;54.352;9.074;2024-03-22T02:33:27;49.53;;;41.43;;
21507;SDS011;10915;54.352;9.074;2024-03-22T02:35:52;52.33;;;42.43;;
21507;SDS011;10915;54.352;9.074;2024-03-22T02:38:18;56.97;;;43.63;;
21507;SDS011;10915;54.352;9.074;2024-03-22T02:40:44;61.38;;;45.40;;
21507;SDS011;10915;54.352;9.074;2024-03-22T02:43:11;52.30;;;42.73;;
21507;SDS011;10915;54.352;9.074;2024-03-22T02:45:37;51.80;;;41.43;;
21507;SDS011;10915;54.352;9.074;2024-03-22T02:48:03;49.30;;;41.03;;
21507;SDS011;10915;54.352;9.074;2024-03-22T02:50:32;54.13;;;42.77;;
21507;SDS011;10915;54.352;9.074;2024-03-22T02:53:02;56.60;;;42.10;;
21507;SDS011;10915;54.352;9.074;2024-03-22T02:55:28;50.97;;;41.63;;
21507;SDS011;10915;54.352;9.074;2024-03-22T02:57:55;52.00;;;42.10;;
21507;SDS011;10915;54.352;9.074;2024-03-22T03:00:21;50.47;;;41.07;;
21507;SDS011;10915;54.352;9.074;2024-03-22T03:02:47;52.73;;;40.47;;
21507;SDS011;10915;54.352;9.074;2024-03-22T03:05:13;48.17;;;39.53;;
21507;SDS011;10915;54.352;9.074;2024-03-22T03:07:38;50.93;;;40.90;;
21507;SDS011;10915;54.352;9.074;2024-03-22T03:10:05;51.47;;;41.30;;
21507;SDS011;10915;54.352;9.074;2024-03-22T03:12:31;50.93;;;41.20;;
21507;SDS011;10915;54.352;9.074;2024-03-22T03:14:57;51.67;;;41.30;;
21507;SDS011;10915;54.352;9.074;2024-03-22T03:17:22;52.63;;;40.57;;
21507;SDS011;10915;54.352;9.074;2024-03-22T03:19:48;52.27;;;43.93;;
21507;SDS011;10915;54.352;9.074;2024-03-22T03:22:14;53.63;;;41.10;;
21507;SDS011;10915;54.352;9.074;2024-03-22T03:24:40;53.23;;;41.40;;
21507;SDS011;10915;54.352;9.074;2024-03-22T03:27:05;51.10;;;43.37;;
21507;SDS011;10915;54.352;9.074;2024-03-22T03:29:32;52.83;;;39.10;;
21507;SDS011;10915;54.352;9.074;2024-03-22T03:31:57;57.07;;;39.70;;
21507;SDS011;10915;54.352;9.074;2024-03-22T03:34:23;51.90;;;38.67;;
21507;SDS011;10915;54.352;9.074;2024-03-22T03:36:48;54.37;;;40.10;;
21507;SDS011;10915;54.352;9.074;2024-03-22T03:39:14;52.57;;;39.27;;
21507;SDS011;10915;54.352;9.074;2024-03-22T03:41:40;57.13;;;42.30;;
21507;SDS011;10915;54.352;9.074;2024-03-22T03:44:05;53.03;;;41.80;;
21507;SDS011;10915;54.352;9.074;2024-03-22T03:46:31;54.25;;;44.30;;
21507;SDS011;10915;54.352;9.074;2024-03-22T03:48:56;54.43;;;39.90;;
21507;SDS011;10915;54.352;9.074;2024-03-22T03:51:22;59.60;;;42.23;;
21507;SDS011;10915;54.352;9.074;2024-03-22T03:53:47;58.90;;;42.43;;
21507;SDS011;10915;54.352;9.074;2024-03-22T03:56:13;60.27;;;43.33;;
21507;SDS011;10915;54.352;9.074;2024-03-22T03:58:39;58.77;;;43.03;;
21507;SDS011;10915;54.352;9.074;2024-03-22T04:01:08;60.87;;;44.37;;
21507;SDS011;10915;54.352;9.074;2024-03-22T04:03:34;67.07;;;49.65;;
21507;SDS011;10915;54.352;9.074;2024-03-22T04:06:00;66.20;;;46.37;;
21507;SDS011;10915;54.352;9.074;2024-03-22T04:08:26;70.65;;;52.03;;
21507;SDS011;10915;54.352;9.074;2024-03-22T04:10:55;71.87;;;48.27;;
21507;SDS011;10915;54.352;9.074;2024-03-22T04:13:27;76.50;;;49.63;;
21507;SDS011;10915;54.352;9.074;2024-03-22T04:15:53;77.90;;;51.80;;
21507;SDS011;10915;54.352;9.074;2024-03-22T04:18:19;73.17;;;50.53;;
21507;SDS011;10915;54.352;9.074;2024-03-22T04:20:54;90.07;;;52.97;;
21507;SDS011;10915;54.352;9.074;2024-03-22T04:23:26;88.30;;;52.73;;
21507;SDS011;10915;54.352;9.074;2024-03-22T04:25:53;90.43;;;53.37;;
21507;SDS011;10915;54.352;9.074;2024-03-22T04:28:28;98.28;;;62.55;;
21507;SDS011;10915;54.352;9.074;2024-03-22T04:30:58;97.67;;;56.93;;
21507;SDS011;10915;54.352;9.074;2024-03-22T04:33:33;103.53;;;64.15;;
21507;SDS011;10915;54.352;9.074;2024-03-22T04:36:00;111.40;;;62.60;;
21507;SDS011;10915;54.352;9.074;2024-03-22T04:38:26;108.60;;;55.47;;
21507;SDS011;10915;54.352;9.074;2024-03-22T04:40:52;97.70;;;54.10;;
21507;SDS011;10915;54.352;9.074;2024-03-22T04:43:19;106.63;;;55.43;;
21507;SDS011;10915;54.352;9.074;2024-03-22T04:45:46;104.90;;;55.97;;
21507;SDS011;10915;54.352;9.074;2024-03-22T04:48:12;117.38;;;64.47;;
21507;SDS011;10915;54.352;9.074;2024-03-22T04:50:40;118.20;;;58.90;;
21507;SDS011;10915;54.352;9.074;2024-03-22T04:53:06;114.93;;;59.03;;
21507;SDS011;10915;54.352;9.074;2024-03-22T04:55:31;118.83;;;58.27;;
21507;SDS011;10915;54.352;9.074;2024-03-22T04:58:00;112.67;;;60.63;;
21507;SDS011;10915;54.352;9.074;2024-03-22T05:00:26;121.23;;;59.20;;
21507;SDS011;10915;54.352;9.074;2024-03-22T05:02:55;111.00;;;60.37;;
21507;SDS011;10915;54.352;9.074;2024-03-22T05:05:21;120.80;;;60.93;;
21507;SDS011;10915;54.352;9.074;2024-03-22T05:07:46;121.03;;;61.90;;
21507;SDS011;10915;54.352;9.074;2024-03-22T05:10:12;118.50;;;62.47;;
21507;SDS011;10915;54.352;9.074;2024-03-22T05:12:38;128.10;;;60.13;;
21507;SDS011;10915;54.352;9.074;2024-03-22T05:15:05;127.28;;;70.88;;
21507;SDS011;10915;54.352;9.074;2024-03-22T05:17:31;127.43;;;61.23;;
21507;SDS011;10915;54.352;9.074;2024-03-22T05:19:58;123.32;;;69.03;;
21507;SDS011;10915;54.352;9.074;2024-03-22T05:22:24;126.03;;;58.57;;
21507;SDS011;10915;54.352;9.074;2024-03-22T05:24:50;108.00;;;52.67;;
21507;SDS011;10915;54.352;9.074;2024-03-22T05:27:16;111.63;;;55.00;;
21507;SDS011;10915;54.352;9.074;2024-03-22T05:29:42;120.73;;;57.80;;
21507;SDS011;10915;54.352;9.074;2024-03-22T05:32:08;116.47;;;55.47;;
21507;SDS011;10915;54.352;9.074;2024-03-22T05:34:33;126.10;;;59.87;;
21507;SDS011;10915;54.352;9.074;2024-03-22T05:37:00;130.23;;;58.23;;
21507;SDS011;10915;54.352;9.074;2024-03-22T05:39:26;128.48;;;65.85;;
21507;SDS011;10915;54.352;9.074;2024-03-22T05:41:52;128.90;;;59.57;;
21507;SDS011;10915;54.352;9.074;2024-03-22T05:44:18;130.70;;;60.10;;
21507;SDS011;10915;54.352;9.074;2024-03-22T05:46:44;135.87;;;62.53;;
21507;SDS011;10915;54.352;9.074;2024-03-22T05:49:09;120.87;;;58.67;;
21507;SDS011;10915;54.352;9.074;2024-03-22T05:51:35;124.53;;;59.73;;
21507;SDS011;10915;54.352;9.074;2024-03-22T05:54:01;122.47;;;57.83;;
21507;SDS011;10915;54.352;9.074;2024-03-22T05:56:27;127.37;;;59.77;;
21507;SDS011;10915;54.352;9.074;2024-03-22T05:58:53;121.03;;;63.43;;
21507;SDS011;10915;54.352;9.074;2024-03-22T06:01:19;129.30;;;55.47;;
21507;SDS011;10915;54.352;9.074;2024-03-22T06:03:44;120.23;;;55.30;;
21507;SDS011;10915;54.352;9.074;2024-03-22T06:06:10;123.37;;;53.87;;
21507;SDS011;10915;54.352;9.074;2024-03-22T06:08:37;114.97;;;53.10;;
21507;SDS011;10915;54.352;9.074;2024-03-22T06:11:04;116.03;;;57.13;;
21507;SDS011;10915;54.352;9.074;2024-03-22T06:13:32;102.47;;;49.23;;
21507;SDS011;10915;54.352;9.074;2024-03-22T06:15:58;106.63;;;50.27;;
21507;SDS011;10915;54.352;9.074;2024-03-22T06:18:24;97.63;;;48.23;;
21507;SDS011;10915;54.352;9.074;2024-03-22T06:20:49;98.27;;;47.90;;
21507;SDS011;10915;54.352;9.074;2024-03-22T06:23:15;93.13;;;47.03;;
21507;SDS011;10915;54.352;9.074;2024-03-22T06:25:40;102.77;;;48.63;;
21507;SDS011;10915;54.352;9.074;2024-03-22T06:28:06;100.23;;;46.73;;
21507;SDS011;10915;54.352;9.074;2024-03-22T06:30:31;100.93;;;45.93;;
21507;SDS011;10915;54.352;9.074;2024-03-22T06:32:57;98.93;;;47.20;;
21507;SDS011;10915;54.352;9.074;2024-03-22T06:35:23;97.67;;;45.23;;
21507;SDS011;10915;54.352;9.074;2024-03-22T06:37:48;98.47;;;44.80;;
21507;SDS011;10915;54.352;9.074;2024-03-22T06:40:14;106.60;;;47.17;;
21507;SDS011;10915;54.352;9.074;2024-03-22T06:42:40;98.90;;;45.03;;
21507;SDS011;10915;54.352;9.074;2024-03-22T06:45:06;95.90;;;44.97;;
21507;SDS011;10915;54.352;9.074;2024-03-22T06:47:32;105.93;;;44.87;;
21507;SDS011;10915;54.352;9.074;2024-03-22T06:49:58;96.67;;;43.23;;
21507;SDS011;10915;54.352;9.074;2024-03-22T06:52:23;96.63;;;42.33;;
21507;SDS011;10915;54.352;9.074;2024-03-22T06:54:49;91.07;;;40.63;;
21507;SDS011;10915;54.352;9.074;2024-03-22T06:57:15;94.07;;;38.53;;
21507;SDS011;10915;54.352;9.074;2024-03-22T06:59:41;96.30;;;38.53;;
21507;SDS011;10915;54.352;9.074;2024-03-22T07:02:06;82.87;;;37.20;;
21507;SDS011;10915;54.352;9.074;2024-03-22T07:04:34;83.23;;;34.80;;
21507;SDS011;10915;54.352;9.074;2024-03-22T07:07:00;74.43;;;34.80;;
21507;SDS011;10915;54.352;9.074;2024-03-22T07:09:25;72.93;;;33.37;;
21507;SDS011;10915;54.352;9.074;2024-03-22T07:11:53;68.70;;;31.70;;
21507;SDS011;10915;54.352;9.074;2024-03-22T07:14:19;70.17;;;32.50;;
21507;SDS011;10915;54.352;9.074;2024-03-22T07:16:44;67.37;;;31.67;;
21507;SDS011;10915;54.352;9.074;2024-03-22T07:19:10;66.27;;;30.93;;
21507;SDS011;10915;54.352;9.074;2024-03-22T07:21:36;67.57;;;30.30;;
21507;SDS011;10915;54.352;9.074;2024-03-22T07:24:02;64.10;;;30.30;;
21507;SDS011;10915;54.352;9.074;2024-03-22T07:26:28;61.83;;;30.10;;
21507;SDS011;10915;54.352;9.074;2024-03-22T07:28:53;59.17;;;27.93;;
21507;SDS011;10915;54.352;9.074;2024-03-22T07:31:20;51.70;;;26.17;;
21507;SDS011;10915;54.352;9.074;2024-03-22T07:33:46;48.63;;;24.23;;
21507;SDS011;10915;54.352;9.074;2024-03-22T07:36:12;54.23;;;24.30;;
21507;SDS011;10915;54.352;9.074;2024-03-22T07:38:37;42.33;;;22.33;;
21507;SDS011;10915;54.352;9.074;2024-03-22T07:41:03;42.03;;;22.60;;
21507;SDS011;10915;54.352;9.074;2024-03-22T07:43:29;43.70;;;21.60;;
21507;SDS011;10915;54.352;9.074;2024-03-22T07:45:55;39.80;;;20.80;;
21507;SDS011;10915;54.352;9.074;2024-03-22T07:48:21;33.97;;;19.33;;
21507;SDS011;10915;54.352;9.074;2024-03-22T07:50:47;34.17;;;19.63;;
21507;SDS011;10915;54.352;9.074;2024-03-22T07:53:21;35.57;;;18.97;;
21507;SDS011;10915;54.352;9.074;2024-03-22T07:55:47;35.83;;;19.27;;
21507;SDS011;10915;54.352;9.074;2024-03-22T07:58:12;35.60;;;20.37;;
21507;SDS011;10915;54.352;9.074;2024-03-22T08:00:38;39.07;;;19.80;;
21507;SDS011;10915;54.352;9.074;2024-03-22T08:03:04;33.87;;;18.47;;
21507;SDS011;10915;54.352;9.074;2024-03-22T08:05:29;35.30;;;19.27;;
21507;SDS011;10915;54.352;9.074;2024-03-22T08:07:55;35.70;;;20.03;;
21507;SDS011;10915;54.352;9.074;2024-03-22T08:10:21;37.17;;;20.77;;
21507;SDS011;10915;54.352;9.074;2024-03-22T08:12:46;35.80;;;20.87;;
21507;SDS011;10915;54.352;9.074;2024-03-22T08:15:12;38.90;;;21.57;;
21507;SDS011;10915;54.352;9.074;2024-03-22T08:17:37;40.03;;;21.67;;
21507;SDS011;10915;54.352;9.074;2024-03-22T08:20:03;37.93;;;21.50;;
21507;SDS011;10915;54.352;9.074;2024-03-22T08:22:29;37.40;;;21.43;;
21507;SDS011;10915;54.352;9.074;2024-03-22T08:24:55;36.80;;;21.17;;
21507;SDS011;10915;54.352;9.074;2024-03-22T08:27:21;30.90;;;19.00;;
21507;SDS011;10915;54.352;9.074;2024-03-22T08:29:46;34.07;;;20.67;;
21507;SDS011;10915;54.352;9.074;2024-03-22T08:32:12;35.73;;;20.40;;
21507;SDS011;10915;54.352;9.074;2024-03-22T08:34:38;35.67;;;20.87;;
21507;SDS011;10915;54.352;9.074;2024-03-22T08:37:03;39.07;;;22.97;;
21507;SDS011;10915;54.352;9.074;2024-03-22T08:39:29;36.67;;;19.83;;
21507;SDS011;10915;54.352;9.074;2024-03-22T08:41:55;34.27;;;19.07;;
21507;SDS011;10915;54.352;9.074;2024-03-22T08:44:21;33.43;;;18.80;;
21507;SDS011;10915;54.352;9.074;2024-03-22T08:46:47;27.80;;;17.23;;
21507;SDS011;10915;54.352;9.074;2024-03-22T08:49:13;31.07;;;19.17;;
21507;SDS011;10915;54.352;9.074;2024-03-22T08:51:39;31.63;;;17.63;;
21507;SDS011;10915;54.352;9.074;2024-03-22T08:54:04;26.13;;;16.50;;
21507;SDS011;10915;54.352;9.074;2024-03-22T08:56:30;27.87;;;16.93;;
21507;SDS011;10915;54.352;9.074;2024-03-22T08:58:55;24.70;;;16.50;;
21507;SDS011;10915;54.352;9.074;2024-03-22T09:01:21;26.00;;;16.87;;
21507;SDS011;10915;54.352;9.074;2024-03-22T09:03:47;27.73;;;17.17;;
21507;SDS011;10915;54.352;9.074;2024-03-22T09:06:14;28.03;;;16.40;;
21507;SDS011;10915;54.352;9.074;2024-03-22T09:08:40;27.13;;;16.63;;
21507;SDS011;10915;54.352;9.074;2024-03-22T09:11:05;29.60;;;17.37;;
21507;SDS011;10915;54.352;9.074;2024-03-22T09:13:31;24.23;;;16.97;;
21507;SDS011;10915;54.352;9.074;2024-03-22T09:15:59;32.27;;;17.73;;
21507;SDS011;10915;54.352;9.074;2024-03-22T09:18:25;26.00;;;16.73;;
21507;SDS011;10915;54.352;9.074;2024-03-22T09:20:52;23.27;;;16.37;;
21507;SDS011;10915;54.352;9.074;2024-03-22T09:23:18;27.43;;;17.50;;
21507;SDS011;10915;54.352;9.074;2024-03-22T09:25:45;26.33;;;16.80;;
21507;SDS011;10915;54.352;9.074;2024-03-22T09:28:11;24.87;;;16.53;;
21507;SDS011;10915;54.352;9.074;2024-03-22T09:30:40;23.93;;;16.23;;
21507;SDS011;10915;54.352;9.074;2024-03-22T09:33:08;27.77;;;18.05;;
21507;SDS011;10915;54.352;9.074;2024-03-22T09:35:34;23.20;;;16.50;;
21507;SDS011;10915;54.352;9.074;2024-03-22T09:38:00;24.17;;;15.30;;
21507;SDS011;10915;54.352;9.074;2024-03-22T09:40:27;22.73;;;14.83;;
21507;SDS011;10915;54.352;9.074;2024-03-22T09:42:53;25.20;;;14.60;;
21507;SDS011;10915;54.352;9.074;2024-03-22T09:45:23;23.93;;;14.03;;
21507;SDS011;10915;54.352;9.074;2024-03-22T09:47:49;23.77;;;14.40;;
21507;SDS011;10915;54.352;9.074;2024-03-22T09:50:18;23.77;;;15.48;;
21507;SDS011;10915;54.352;9.074;2024-03-22T09:52:43;25.27;;;15.03;;
21507;SDS011;10915;54.352;9.074;2024-03-22T09:55:10;19.53;;;12.57;;
21507;SDS011;10915;54.352;9.074;2024-03-22T09:57:37;22.73;;;12.50;;
21507;SDS011;10915;54.352;9.074;2024-03-22T10:00:07;19.40;;;10.97;;
21507;SDS011;10915;54.352;9.074;2024-03-22T10:02:33;17.63;;;11.97;;
21507;SDS011;10915;54.352;9.074;2024-03-22T10:04:59;18.00;;;10.70;;
21507;SDS011;10915;54.352;9.074;2024-03-22T10:07:27;18.93;;;11.57;;
21507;SDS011;10915;54.352;9.074;2024-03-22T10:09:53;19.30;;;10.87;;
21507;SDS011;10915;54.352;9.074;2024-03-22T10:12:22;17.60;;;10.80;;
21507;SDS011;10915;54.352;9.074;2024-03-22T10:14:48;17.57;;;10.37;;
21507;SDS011;10915;54.352;9.074;2024-03-22T10:17:13;13.90;;;9.20;;
21507;SDS011;10915;54.352;9.074;2024-03-22T10:19:39;15.00;;;9.57;;
21507;SDS011;10915;54.352;9.074;2024-03-22T10:22:05;15.23;;;10.50;;
21507;SDS011;10915;54.352;9.074;2024-03-22T10:24:31;17.47;;;8.90;;
21507;SDS011;10915;54.352;9.074;2024-03-22T10:26:58;13.40;;;7.97;;
21507;SDS011;10915;54.352;9.074;2024-03-22T10:29:24;15.50;;;8.57;;
21507;SDS011;10915;54.352;9.074;2024-03-22T10:31:50;11.83;;;7.53;;
21507;SDS011;10915;54.352;9.074;2024-03-22T10:34:20;12.13;;;8.03;;
21507;SDS011;10915;54.352;9.074;2024-03-22T10:36:50;11.63;;;8.63;;
21507;SDS011;10915;54.352;9.074;2024-03-22T10:39:19;13.27;;;6.83;;
21507;SDS011;10915;54.352;9.074;2024-03-22T10:41:45;11.13;;;7.23;;
21507;SDS011;10915;54.352;9.074;2024-03-22T10:44:11;8.97;;;6.13;;
21507;SDS011;10915;54.352;9.074;2024-03-22T10:46:37;11.97;;;6.30;;
21507;SDS011;10915;54.352;9.074;2024-03-22T10:49:06;8.87;;;5.80;;
21507;SDS011;10915;54.352;9.074;2024-03-22T10:51:32;8.50;;;5.70;;
21507;SDS011;10915;54.352;9.074;2024-03-22T10:54:01;8.87;;;4.87;;
21507;SDS011;10915;54.352;9.074;2024-03-22T10:56:28;9.00;;;5.30;;
21507;SDS011;10915;54.352;9.074;2024-03-22T10:58:55;9.33;;;5.70;;
21507;SDS011;10915;54.352;9.074;2024-03-22T11:01:27;8.80;;;5.37;;
21507;SDS011;10915;54.352;9.074;2024-03-22T11:04:05;8.80;;;5.30;;
21507;SDS011;10915;54.352;9.074;2024-03-22T11:06:37;9.67;;;4.83;;
21507;SDS011;10915;54.352;9.074;2024-03-22T11:09:03;9.67;;;5.63;;
21507;SDS011;10915;54.352;9.074;2024-03-22T11:11:34;9.77;;;4.97;;
21507;SDS011;10915;54.352;9.074;2024-03-22T11:14:02;9.67;;;4.87;;
21507;SDS011;10915;54.352;9.074;2024-03-22T11:16:28;10.97;;;5.00;;
21507;SDS011;10915;54.352;9.074;2024-03-22T11:18:55;8.53;;;4.30;;
21507;SDS011;10915;54.352;9.074;2024-03-22T11:21:21;12.10;;;5.30;;
21507;SDS011;10915;54.352;9.074;2024-03-22T11:23:46;11.30;;;5.57;;
21507;SDS011;10915;54.352;9.074;2024-03-22T11:26:12;15.27;;;5.10;;
21507;SDS011;10915;54.352;9.074;2024-03-22T11:28:38;14.13;;;5.30;;
21507;SDS011;10915;54.352;9.074;2024-03-22T11:31:04;15.33;;;5.40;;
21507;SDS011;10915;54.352;9.074;2024-03-22T11:33:30;13.43;;;5.30;;
21507;SDS011;10915;54.352;9.074;2024-03-22T11:35:59;15.97;;;5.70;;
21507;SDS011;10915;54.352;9.074;2024-03-22T11:38:26;14.20;;;5.83;;
21507;SDS011;10915;54.352;9.074;2024-03-22T11:40:52;13.03;;;5.20;;
21507;SDS011;10915;54.352;9.074;2024-03-22T11:43:19;13.83;;;5.20;;
21507;SDS011;10915;54.352;9.074;2024-03-22T11:45:45;17.77;;;5.00;;
21507;SDS011;10915;54.352;9.074;2024-03-22T11:48:11;21.53;;;5.90;;
21507;SDS011;10915;54.352;9.074;2024-03-22T11:50:37;18.10;;;5.50;;
21507;SDS011;10915;54.352;9.074;2024-03-22T11:53:04;18.30;;;5.50;;
21507;SDS011;10915;54.352;9.074;2024-03-22T11:55:30;17.77;;;5.93;;
21507;SDS011;10915;54.352;9.074;2024-03-22T11:57:59;20.03;;;5.43;;
21507;SDS011;10915;54.352;9.074;2024-03-22T12:00:25;21.03;;;6.07;;
21507;SDS011;10915;54.352;9.074;2024-03-22T12:02:52;17.80;;;5.23;;
21507;SDS011;10915;54.352;9.074;2024-03-22T12:05:18;16.93;;;5.03;;
21507;SDS011;10915;54.352;9.074;2024-03-22T12:07:45;20.03;;;5.23;;
21507;SDS011;10915;54.352;9.074;2024-03-22T12:10:11;16.27;;;4.90;;
21507;SDS011;10915;54.352;9.074;2024-03-22T12:12:36;20.00;;;5.00;;
21507;SDS011;10915;54.352;9.074;2024-03-22T12:15:03;25.10;;;6.23;;
21507;SDS011;10915;54.352;9.074;2024-03-22T12:17:29;18.23;;;5.47;;
21507;SDS011;10915;54.352;9.074;2024-03-22T12:19:55;18.80;;;5.33;;
21507;SDS011;10915;54.352;9.074;2024-03-22T12:22:21;19.13;;;5.57;;
21507;SDS011;10915;54.352;9.074;2024-03-22T12:24:47;16.83;;;4.77;;
21507;SDS011;10915;54.352;9.074;2024-03-22T12:27:13;20.67;;;5.20;;
21507;SDS011;10915;54.352;9.074;2024-03-22T12:29:38;24.40;;;5.97;;
21507;SDS011;10915;54.352;9.074;2024-03-22T12:32:04;20.67;;;5.53;;
21507;SDS011;10915;54.352;9.074;2024-03-22T12:34:31;22.33;;;5.27;;
21507;SDS011;10915;54.352;9.074;2024-03-22T12:36:58;21.17;;;5.90;;
21507;SDS011;10915;54.352;9.074;2024-03-22T12:39:24;19.80;;;5.83;;
21507;SDS011;10915;54.352;9.074;2024-03-22T12:41:50;23.60;;;6.67;;
21507;SDS011;10915;54.352;9.074;2024-03-22T12:44:16;21.33;;;5.70;;
21507;SDS011;10915;54.352;9.074;2024-03-22T12:46:42;19.77;;;6.07;;
21507;SDS011;10915;54.352;9.074;2024-03-22T12:49:09;21.37;;;5.37;;
21507;SDS011;10915;54.352;9.074;2024-03-22T12:51:35;22.77;;;6.03;;
21507;SDS011;10915;54.352;9.074;2024-03-22T12:54:01;19.43;;;6.47;;
21507;SDS011;10915;54.352;9.074;2024-03-22T12:56:28;21.40;;;5.63;;
21507;SDS011;10915;54.352;9.074;2024-03-22T12:58:53;28.07;;;6.50;;
21507;SDS011;10915;54.352;9.074;2024-03-22T13:01:19;18.53;;;5.60;;
21507;SDS011;10915;54.352;9.074;2024-03-22T13:03:45;19.23;;;5.70;;
21507;SDS011;10915;54.352;9.074;2024-03-22T13:06:11;25.50;;;6.73;;
21507;SDS011;10915;54.352;9.074;2024-03-22T13:08:37;29.33;;;7.50;;
21507;SDS011;10915;54.352;9.074;2024-03-22T13:11:03;20.77;;;7.50;;
21507;SDS011;10915;54.352;9.074;2024-03-22T13:13:29;20.90;;;7.33;;
21507;SDS011;10915;54.352;9.074;2024-03-22T13:15:58;22.47;;;7.80;;
21507;SDS011;10915;54.352;9.074;2024-03-22T13:18:24;25.87;;;8.20;;
21507;SDS011;10915;54.352;9.074;2024-03-22T13:20:49;21.80;;;7.53;;
21507;SDS011;10915;54.352;9.074;2024-03-22T13:23:15;21.83;;;7.53;;
21507;SDS011;10915;54.352;9.074;2024-03-22T13:25:40;29.17;;;8.50;;
21507;SDS011;10915;54.352;9.074;2024-03-22T13:28:06;23.90;;;8.10;;
21507;SDS011;10915;54.352;9.074;2024-03-22T13:30:32;23.97;;;8.23;;
21507;SDS011;10915;54.352;9.074;2024-03-22T13:32:57;22.83;;;7.80;;
21507;SDS011;10915;54.352;9.074;2024-03-22T13:35:24;25.70;;;8.13;;
21507;SDS011;10915;54.352;9.074;2024-03-22T13:37:50;22.43;;;7.43;;
21507;SDS011;10915;54.352;9.074;2024-03-22T13:40:15;21.53;;;7.23;;
21507;SDS011;10915;54.352;9.074;2024-03-22T13:42:41;26.43;;;8.20;;
21507;SDS011;10915;54.352;9.074;2024-03-22T13:45:07;28.73;;;8.77;;
21507;SDS011;10915;54.352;9.074;2024-03-22T13:47:33;27.97;;;7.47;;
21507;SDS011;10915;54.352;9.074;2024-03-22T13:49:59;20.57;;;8.53;;
21507;SDS011;10915;54.352;9.074;2024-03-22T13:52:24;22.27;;;7.67;;
21507;SDS011;10915;54.352;9.074;2024-03-22T13:54:51;23.80;;;7.10;;
21507;SDS011;10915;54.352;9.074;2024-03-22T13:57:16;23.03;;;7.93;;
21507;SDS011;10915;54.352;9.074;2024-03-22T13:59:42;28.27;;;7.80;;
21507;SDS011;10915;54.352;9.074;2024-03-22T14:02:07;26.53;;;7.03;;
21507;SDS011;10915;54.352;9.074;2024-03-22T14:04:34;24.03;;;7.80;;
21507;SDS011;10915;54.352;9.074;2024-03-22T14:07:00;26.40;;;8.27;;
21507;SDS011;10915;54.352;9.074;2024-03-22T14:09:30;26.67;;;7.80;;
21507;SDS011;10915;54.352;9.074;2024-03-22T14:11:56;28.37;;;7.97;;
21507;SDS011;10915;54.352;9.074;2024-03-22T14:14:22;24.80;;;7.23;;
21507;SDS011;10915;54.352;9.074;2024-03-22T14:16:49;22.10;;;6.73;;